Time;durP1;ratioP1;P1;durP2;ratioP2;P2;SDS_P1;SDS_P2;PMS_P1;PMS_P2;Temp;Humidity;BMP_temperature;BMP_pressure;BME280_temperature;BME280_humidity;BME280_pressure;Samples;Min_cycle;Max_cycle;Signal;HPM_P1;HPM_P2
2021/04/04 00:02:25;;;;;;;7.45;2.92;;;;;;;;;;3579400;40;20121;-50
2021/04/04 00:04:51;;;;;;;9.10;3.53;;;;;;;;;;3578167;40;20485;-49
2021/04/04 00:07:16;;;;;;;7.32;3.00;;;;;;;;;;3579933;40;20077;-53
2021/04/04 00:09:42;;;;;;;8.63;3.03;;;;;;;;;;3579849;40;20027;-54
2021/04/04 00:12:08;;;;;;;11.60;3.10;;;;;;;;;;3579616;40;20055;-54
2021/04/04 00:14:34;;;;;;;8.95;2.53;;;;;;;;;;3580004;40;20123;-53
2021/04/04 00:17:00;;;;;;;7.18;2.47;;;;;;;;;;3579479;40;20029;-51
2021/04/04 00:19:25;;;;;;;7.78;2.40;;;;;;;;;;3580000;40;20392;-51
2021/04/04 00:21:50;;;;;;;9.50;3.50;;;;;;;;;;3579237;40;20089;-52
2021/04/04 00:24:16;;;;;;;10.18;3.08;;;;;;;;;;3579359;40;20081;-51
2021/04/04 00:26:41;;;;;;;7.68;3.10;;;;;;;;;;3580698;40;20035;-51
2021/04/04 00:29:08;;;;;;;6.60;3.17;;;;;;;;;;3579719;40;20270;-52
2021/04/04 00:31:37;;;;;;;5.68;2.95;;;;;;;;;;3579704;40;20048;-54
2021/04/04 00:34:03;;;;;;;6.07;3.13;;;;;;;;;;3579544;40;20045;-54
2021/04/04 00:36:29;;;;;;;8.40;3.70;;;;;;;;;;3581204;40;20041;-51
2021/04/04 00:38:55;;;;;;;6.47;3.00;;;;;;;;;;3579348;40;20071;-51
2021/04/04 00:41:20;;;;;;;12.52;4.05;;;;;;;;;;3579888;40;20090;-50
2021/04/04 00:43:46;;;;;;;13.57;3.88;;;;;;;;;;3579599;40;20053;-54
2021/04/04 00:46:11;;;;;;;12.65;4.03;;;;;;;;;;3579567;40;20063;-54
2021/04/04 00:48:37;;;;;;;13.90;3.25;;;;;;;;;;3580121;40;20283;-49
2021/04/04 00:51:02;;;;;;;7.03;3.08;;;;;;;;;;3579769;40;20150;-51
2021/04/04 00:53:28;;;;;;;7.70;4.03;;;;;;;;;;3579717;40;20041;-54
2021/04/04 00:55:53;;;;;;;5.53;3.13;;;;;;;;;;3578929;40;20043;-50
2021/04/04 00:58:19;;;;;;;7.47;3.20;;;;;;;;;;3581095;40;20598;-51
2021/04/04 01:00:44;;;;;;;9.65;4.15;;;;;;;;;;3579213;40;20049;-50
2021/04/04 01:03:10;;;;;;;7.40;3.25;;;;;;;;;;3579382;40;20077;-53
2021/04/04 01:05:40;;;;;;;7.47;2.92;;;;;;;;;;3580562;40;20037;-53
2021/04/04 01:08:06;;;;;;;7.68;3.45;;;;;;;;;;3579124;40;20118;-53
2021/04/04 01:10:34;;;;;;;8.38;2.75;;;;;;;;;;3578050;40;20334;-54
2021/04/04 01:13:02;;;;;;;6.53;2.80;;;;;;;;;;3578081;40;20157;-53
2021/04/04 01:15:37;;;;;;;9.10;3.28;;;;;;;;;;3580341;40;20361;-51
2021/04/04 01:18:34;;;;;;;5.50;2.75;;;;;;;;;;3578393;40;20058;-53
2021/04/04 01:21:04;;;;;;;5.35;2.85;;;;;;;;;;3579039;40;20372;-52
2021/04/04 01:23:50;;;;;;;9.90;3.08;;;;;;;;;;3580532;40;20142;-51
2021/04/04 01:26:50;;;;;;;6.15;3.08;;;;;;;;;;3579508;40;20033;-52
2021/04/04 01:29:18;;;;;;;11.88;3.45;;;;;;;;;;3578952;40;20049;-49
2021/04/04 01:31:43;;;;;;;5.93;3.08;;;;;;;;;;3580137;40;20499;-52
2021/04/04 01:34:12;;;;;;;6.65;3.08;;;;;;;;;;3579384;40;20056;-50
2021/04/04 01:36:39;;;;;;;7.43;3.28;;;;;;;;;;3579434;40;20047;-52
2021/04/04 01:39:09;;;;;;;9.77;3.60;;;;;;;;;;3579771;40;20033;-52
2021/04/04 01:41:38;;;;;;;7.10;3.60;;;;;;;;;;3579451;40;20037;-53
2021/04/04 01:44:10;;;;;;;9.75;3.67;;;;;;;;;;3578042;40;20315;-53
2021/04/04 01:46:37;;;;;;;8.43;3.28;;;;;;;;;;3577977;40;20040;-52
2021/04/04 01:49:03;;;;;;;8.73;3.13;;;;;;;;;;3577535;40;20031;-48
2021/04/04 01:51:31;;;;;;;14.93;3.83;;;;;;;;;;3578033;40;20376;-49
2021/04/04 01:54:00;;;;;;;12.07;3.33;;;;;;;;;;3577056;40;20052;-51
2021/04/04 01:56:27;;;;;;;7.95;3.33;;;;;;;;;;3576912;40;20044;-50
2021/04/04 01:58:53;;;;;;;7.65;3.20;;;;;;;;;;3577256;40;20125;-50
2021/04/04 02:01:20;;;;;;;5.90;3.17;;;;;;;;;;3577817;40;20109;-53
2021/04/04 02:03:46;;;;;;;6.88;3.47;;;;;;;;;;3578407;40;20029;-51
2021/04/04 02:06:13;;;;;;;8.98;3.53;;;;;;;;;;3576940;40;20535;-51
2021/04/04 02:08:41;;;;;;;7.43;3.40;;;;;;;;;;3576783;40;20398;-52
2021/04/04 02:11:09;;;;;;;10.77;4.18;;;;;;;;;;3577190;40;20169;-53
2021/04/04 02:13:35;;;;;;;12.65;4.38;;;;;;;;;;3576793;40;20070;-52
2021/04/04 02:16:02;;;;;;;6.30;3.42;;;;;;;;;;3577082;40;20085;-51
2021/04/04 02:18:28;;;;;;;6.63;3.30;;;;;;;;;;3577682;40;20118;-51
2021/04/04 02:20:57;;;;;;;9.48;3.90;;;;;;;;;;3576789;40;20733;-54
2021/04/04 02:23:23;;;;;;;7.30;3.72;;;;;;;;;;3577277;40;20119;-48
2021/04/04 02:25:52;;;;;;;8.07;3.40;;;;;;;;;;3576787;40;20037;-51
2021/04/04 02:28:18;;;;;;;6.47;3.58;;;;;;;;;;3576687;40;20392;-49
2021/04/04 02:30:43;;;;;;;8.63;3.05;;;;;;;;;;3576817;40;20064;-49
2021/04/04 02:33:15;;;;;;;9.68;3.08;;;;;;;;;;3577145;40;20051;-52
2021/04/04 02:35:43;;;;;;;7.05;3.50;;;;;;;;;;3577815;40;20033;-52
2021/04/04 02:38:21;;;;;;;5.93;3.17;;;;;;;;;;3578049;40;20125;-50
2021/04/04 02:40:48;;;;;;;5.93;3.13;;;;;;;;;;3577194;40;20423;-50
2021/04/04 02:43:23;;;;;;;6.03;3.60;;;;;;;;;;3577089;40;20079;-49
2021/04/04 02:45:50;;;;;;;8.13;3.80;;;;;;;;;;3576852;40;20033;-50
2021/04/04 02:48:17;;;;;;;11.63;3.97;;;;;;;;;;3577039;40;20326;-53
2021/04/04 02:50:46;;;;;;;9.15;3.47;;;;;;;;;;3576770;40;20037;-50
2021/04/04 02:53:13;;;;;;;7.47;3.47;;;;;;;;;;3577479;40;20122;-52
2021/04/04 02:55:40;;;;;;;8.32;3.58;;;;;;;;;;3576594;40;20337;-50
2021/04/04 02:58:10;;;;;;;9.50;3.53;;;;;;;;;;3577402;40;20029;-50
2021/04/04 03:00:40;;;;;;;7.75;3.55;;;;;;;;;;3577952;40;20122;-50
2021/04/04 03:03:08;;;;;;;5.95;3.72;;;;;;;;;;3578457;40;20029;-51
2021/04/04 03:05:35;;;;;;;8.82;4.65;;;;;;;;;;3576318;40;20033;-53
2021/04/04 03:08:03;;;;;;;9.15;4.18;;;;;;;;;;3578558;40;20029;-52
2021/04/04 03:10:33;;;;;;;8.48;4.45;;;;;;;;;;3576781;40;20065;-51
2021/04/04 03:12:59;;;;;;;10.48;4.10;;;;;;;;;;3576781;40;20133;-54
2021/04/04 03:15:27;;;;;;;7.60;3.42;;;;;;;;;;3577251;40;20059;-48
2021/04/04 03:17:54;;;;;;;10.50;3.65;;;;;;;;;;3576831;40;20471;-50
2021/04/04 03:20:20;;;;;;;5.95;3.15;;;;;;;;;;3576698;40;20033;-53
2021/04/04 03:22:47;;;;;;;7.00;3.40;;;;;;;;;;3579361;40;20029;-52
2021/04/04 03:25:13;;;;;;;8.02;4.30;;;;;;;;;;3576550;40;20072;-52
2021/04/04 03:27:44;;;;;;;9.75;4.60;;;;;;;;;;3576732;40;20060;-50
2021/04/04 03:30:34;;;;;;;9.05;3.67;;;;;;;;;;3579242;40;20085;-50
2021/04/04 03:32:59;;;;;;;9.80;4.05;;;;;;;;;;3577177;40;20029;-52
2021/04/04 03:35:26;;;;;;;10.35;4.40;;;;;;;;;;3577730;40;20041;-49
2021/04/04 03:37:52;;;;;;;7.47;4.13;;;;;;;;;;3578800;40;20049;-53
2021/04/04 03:40:18;;;;;;;7.55;4.30;;;;;;;;;;3576910;40;20026;-53
2021/04/04 03:42:45;;;;;;;9.25;4.38;;;;;;;;;;3576808;40;20029;-49
2021/04/04 03:45:12;;;;;;;10.45;4.78;;;;;;;;;;3576511;40;20296;-51
2021/04/04 03:47:38;;;;;;;13.18;5.00;;;;;;;;;;3576780;40;20106;-51
2021/04/04 03:50:04;;;;;;;7.35;4.20;;;;;;;;;;3576998;40;20029;-49
2021/04/04 03:52:32;;;;;;;9.35;4.13;;;;;;;;;;3576708;40;20033;-54
2021/04/04 03:54:58;;;;;;;8.85;4.47;;;;;;;;;;3576654;40;20118;-51
2021/04/04 03:57:25;;;;;;;7.10;4.47;;;;;;;;;;3576535;40;20428;-51
2021/04/04 03:59:52;;;;;;;8.15;3.67;;;;;;;;;;3576300;40;20053;-53
2021/04/04 04:02:21;;;;;;;9.70;3.92;;;;;;;;;;3577026;40;20129;-49
2021/04/04 04:04:47;;;;;;;11.20;4.82;;;;;;;;;;3577447;40;20112;-50
2021/04/04 04:07:12;;;;;;;13.90;3.70;;;;;;;;;;3576461;40;20059;-53
2021/04/04 04:09:39;;;;;;;7.25;4.18;;;;;;;;;;3578375;40;20478;-53
2021/04/04 04:12:06;;;;;;;9.73;3.95;;;;;;;;;;3577122;40;20348;-48
2021/04/04 04:14:32;;;;;;;13.32;4.63;;;;;;;;;;3576186;40;20321;-53
2021/04/04 04:16:58;;;;;;;8.98;3.83;;;;;;;;;;3577511;40;20021;-51
2021/04/04 04:19:24;;;;;;;9.10;3.83;;;;;;;;;;3576718;40;20423;-52
2021/04/04 04:21:49;;;;;;;10.57;3.40;;;;;;;;;;3577455;40;20393;-51
2021/04/04 04:24:16;;;;;;;7.45;3.47;;;;;;;;;;3580004;40;20189;-51
2021/04/04 04:26:46;;;;;;;9.95;4.20;;;;;;;;;;3579208;40;20033;-49
2021/04/04 04:29:13;;;;;;;6.28;3.20;;;;;;;;;;3580588;40;20122;-50
2021/04/04 04:31:42;;;;;;;5.72;3.20;;;;;;;;;;3579731;40;20052;-52
2021/04/04 04:34:09;;;;;;;9.73;3.10;;;;;;;;;;3579869;40;20037;-50
2021/04/04 04:36:37;;;;;;;7.32;3.42;;;;;;;;;;3579691;40;20148;-53
2021/04/04 04:39:04;;;;;;;7.80;3.38;;;;;;;;;;3579357;40;20065;-52
2021/04/04 04:41:34;;;;;;;7.60;3.75;;;;;;;;;;3580413;40;20264;-53
2021/04/04 04:44:03;;;;;;;5.82;2.97;;;;;;;;;;3580383;40;20314;-53
2021/04/04 04:46:29;;;;;;;5.70;3.10;;;;;;;;;;3580241;40;20060;-52
2021/04/04 04:48:55;;;;;;;6.40;3.53;;;;;;;;;;3578286;40;20064;-53
2021/04/04 04:51:22;;;;;;;6.55;2.92;;;;;;;;;;3579679;40;20375;-53
2021/04/04 04:53:48;;;;;;;7.07;3.35;;;;;;;;;;3581482;40;20037;-50
2021/04/04 04:56:15;;;;;;;7.88;3.67;;;;;;;;;;3581461;40;20093;-49
2021/04/04 04:58:41;;;;;;;6.10;3.53;;;;;;;;;;3579632;40;20316;-52
2021/04/04 05:01:09;;;;;;;11.20;3.97;;;;;;;;;;3578581;40;20163;-52
2021/04/04 05:03:35;;;;;;;10.70;3.92;;;;;;;;;;3578479;40;20044;-53
2021/04/04 05:06:05;;;;;;;11.20;4.15;;;;;;;;;;3576633;40;20488;-52
2021/04/04 05:08:33;;;;;;;8.93;4.07;;;;;;;;;;3577652;40;20048;-51
2021/04/04 05:11:03;;;;;;;6.70;3.33;;;;;;;;;;3577438;40;20041;-51
2021/04/04 05:13:31;;;;;;;9.38;4.45;;;;;;;;;;3580104;40;20063;-49
2021/04/04 05:15:57;;;;;;;7.80;3.33;;;;;;;;;;3579609;40;20070;-53
2021/04/04 05:18:23;;;;;;;7.90;3.83;;;;;;;;;;3577762;40;20253;-51
2021/04/04 05:20:49;;;;;;;13.02;5.15;;;;;;;;;;3577753;40;20037;-50
2021/04/04 05:23:22;;;;;;;7.25;4.20;;;;;;;;;;3577498;40;20038;-50
2021/04/04 05:25:51;;;;;;;12.32;4.50;;;;;;;;;;3577762;40;20041;-53
2021/04/04 05:28:19;;;;;;;14.38;4.78;;;;;;;;;;3578861;40;20057;-52
2021/04/04 05:30:45;;;;;;;13.48;5.15;;;;;;;;;;3577952;40;20045;-51
2021/04/04 05:33:11;;;;;;;8.75;4.20;;;;;;;;;;3577839;40;20040;-54
2021/04/04 05:35:39;;;;;;;12.65;4.95;;;;;;;;;;3578271;40;20048;-51
2021/04/04 05:38:06;;;;;;;10.65;4.53;;;;;;;;;;3577295;40;20044;-54
2021/04/04 05:40:32;;;;;;;12.48;5.03;;;;;;;;;;3578448;40;20305;-54
2021/04/04 05:43:12;;;;;;;9.52;4.75;;;;;;;;;;3577518;40;20021;-51
2021/04/04 05:46:02;;;;;;;11.13;4.90;;;;;;;;;;3577542;40;20112;-51
2021/04/04 05:48:43;;;;;;;10.85;5.68;;;;;;;;;;3577452;40;20056;-52
2021/04/04 05:51:46;;;;;;;7.78;4.28;;;;;;;;;;3577595;40;20048;-49
2021/04/04 05:55:06;;;;;;;8.52;5.22;;;;;;;;;;3577156;40;20041;-52
2021/04/04 05:58:00;;;;;;;9.50;5.20;;;;;;;;;;3567449;40;20037;-53
2021/04/04 06:00:30;;;;;;;10.02;4.82;;;;;;;;;;3573003;40;20084;-51
2021/04/04 06:03:13;;;;;;;8.35;4.90;;;;;;;;;;3578248;40;20052;-49
2021/04/04 06:05:57;;;;;;;10.77;4.60;;;;;;;;;;3577171;40;20037;-49
2021/04/04 06:08:41;;;;;;;7.07;4.35;;;;;;;;;;3577484;40;20517;-53
2021/04/04 06:11:32;;;;;;;9.27;5.07;;;;;;;;;;3577262;40;20025;-51
2021/04/04 06:14:13;;;;;;;11.25;5.40;;;;;;;;;;3577477;40;20049;-52
2021/04/04 06:16:53;;;;;;;9.10;4.63;;;;;;;;;;3577438;40;20037;-49
2021/04/04 06:20:01;;;;;;;8.52;4.50;;;;;;;;;;3577298;40;20032;-56
2021/04/04 06:23:04;;;;;;;9.18;4.50;;;;;;;;;;3576271;40;20047;-52
2021/04/04 06:25:41;;;;;;;9.75;4.60;;;;;;;;;;3578713;40;20052;-53
2021/04/04 06:28:29;;;;;;;8.88;5.05;;;;;;;;;;3576721;40;20406;-54
2021/04/04 06:31:16;;;;;;;9.82;4.72;;;;;;;;;;3580452;40;20041;-52
2021/04/04 06:33:45;;;;;;;11.52;5.68;;;;;;;;;;3579816;40;20036;-54
2021/04/04 06:36:29;;;;;;;17.15;5.50;;;;;;;;;;3582136;40;20111;-50
2021/04/04 06:39:18;;;;;;;10.02;5.45;;;;;;;;;;3578848;40;20044;-55
2021/04/04 06:41:52;;;;;;;18.67;5.78;;;;;;;;;;3580585;40;20049;-53
2021/04/04 06:44:33;;;;;;;12.98;5.57;;;;;;;;;;3577450;40;20083;-54
2021/04/04 06:47:13;;;;;;;12.13;7.20;;;;;;;;;;3577901;40;20371;-53
2021/04/04 06:49:50;;;;;;;12.63;6.30;;;;;;;;;;3577291;40;20628;-50
2021/04/04 06:52:48;;;;;;;13.43;6.88;;;;;;;;;;3577672;40;20033;-53
2021/04/04 06:55:20;;;;;;;13.70;6.47;;;;;;;;;;3576811;40;20053;-54
2021/04/04 06:57:51;;;;;;;11.75;5.68;;;;;;;;;;3577808;40;20053;-51
2021/04/04 07:00:25;;;;;;;;;;;;;;;;;;3579119;40;20040;-52
2021/04/04 07:02:56;;;;;;;11.45;6.25;;;;;;;;;;3577184;40;20260;-54
2021/04/04 07:05:24;;;;;;;;;;;;;;;;;;3579014;40;20284;-52
2021/04/04 07:08:07;;;;;;;15.27;7.40;;;;;;;;;;3579572;40;20636;-50
2021/04/04 07:10:33;;;;;;;13.93;7.22;;;;;;;;;;3578517;40;20174;-50
2021/04/04 07:13:07;;;;;;;17.15;6.53;;;;;;;;;;3580964;40;20413;-48
2021/04/04 07:16:11;;;;;;;16.20;6.90;;;;;;;;;;3577472;40;20048;-53
2021/04/04 07:18:59;;;;;;;13.13;6.53;;;;;;;;;;3573740;40;20049;-53
2021/04/04 07:21:24;;;;;;;10.57;6.07;;;;;;;;;;3579883;40;20037;-55
2021/04/04 07:23:55;;;;;;;17.35;6.43;;;;;;;;;;3578853;40;20073;-53
2021/04/04 07:26:48;;;;;;;18.42;6.80;;;;;;;;;;3576268;40;20056;-53
2021/04/04 07:29:32;;;;;;;18.90;6.03;;;;;;;;;;3577001;40;20045;-50
2021/04/04 07:32:23;;;;;;;14.98;6.88;;;;;;;;;;3579047;40;20056;-52
2021/04/04 07:35:04;;;;;;;;;;;;;;;;;;3576969;40;20040;-54
2021/04/04 07:37:36;;;;;;;21.10;7.85;;;;;;;;;;3577454;40;19925;-50
2021/04/04 07:40:07;;;;;;;;;;;;;;;;;;3579389;40;20394;-50
2021/04/04 07:42:54;;;;;;;21.13;7.55;;;;;;;;;;3576039;40;19936;-53
2021/04/04 07:45:24;;;;;;;21.05;8.70;;;;;;;;;;3577902;40;20094;-53
2021/04/04 07:48:08;;;;;;;17.88;7.93;;;;;;;;;;3576566;40;20029;-51
2021/04/04 07:50:43;;;;;;;17.95;7.22;;;;;;;;;;3576392;40;20052;-49
2021/04/04 07:53:24;;;;;;;17.02;7.82;;;;;;;;;;3576636;40;20296;-51
2021/04/04 07:56:03;;;;;;;17.63;7.53;;;;;;;;;;3579927;40;20037;-51
2021/04/04 07:58:35;;;;;;;17.85;7.90;;;;;;;;;;3579082;40;20021;-53
2021/04/04 08:01:02;;;;;;;;;;;;;;;;;;3578765;40;20051;-53
2021/04/04 08:03:37;;;;;;;19.42;8.25;;;;;;;;;;3577727;40;19979;-54
2021/04/04 08:06:08;;;;;;;24.02;8.20;;;;;;;;;;3577337;40;20059;-53
2021/04/04 08:08:39;;;;;;;19.55;8.05;;;;;;;;;;3578479;40;20044;-52
2021/04/04 08:11:26;;;;;;;16.45;8.18;;;;;;;;;;3577947;40;20036;-50
2021/04/04 08:14:04;;;;;;;18.33;7.70;;;;;;;;;;3576052;40;20079;-52
2021/04/04 08:16:47;;;;;;;19.00;7.97;;;;;;;;;;3576290;40;20041;-51
2021/04/04 08:19:13;;;;;;;21.40;8.23;;;;;;;;;;3575876;40;20035;-54
2021/04/04 08:21:47;;;;;;;18.70;8.23;;;;;;;;;;3576114;40;20029;-49
2021/04/04 08:24:22;;;;;;;17.38;7.38;;;;;;;;;;3576156;40;20029;-53
2021/04/04 08:26:48;;;;;;;17.90;8.05;;;;;;;;;;3576690;40;20033;-54
2021/04/04 08:29:23;;;;;;;18.27;8.25;;;;;;;;;;3579045;40;20036;-52
2021/04/04 08:32:00;;;;;;;28.63;9.18;;;;;;;;;;3578298;40;20118;-49
2021/04/04 08:34:33;;;;;;;18.15;7.88;;;;;;;;;;3579011;40;20044;-54
2021/04/04 08:37:09;;;;;;;18.52;7.95;;;;;;;;;;3577923;40;20315;-51
2021/04/04 08:39:35;;;;;;;18.83;8.82;;;;;;;;;;3578212;40;20134;-51
2021/04/04 08:42:03;;;;;;;18.65;9.30;;;;;;;;;;3578697;40;20037;-51
2021/04/04 08:44:49;;;;;;;17.73;8.85;;;;;;;;;;3578108;40;20045;-52
2021/04/04 08:47:25;;;;;;;24.73;9.05;;;;;;;;;;3579816;40;20049;-49
2021/04/04 08:49:51;;;;;;;23.45;8.95;;;;;;;;;;3578133;40;20039;-52
2021/04/04 08:52:26;;;;;;;28.88;9.32;;;;;;;;;;3579093;40;20029;-51
2021/04/04 08:54:54;;;;;;;18.13;8.98;;;;;;;;;;3579526;40;20076;-52
2021/04/04 08:57:44;;;;;;;17.65;7.90;;;;;;;;;;3577866;40;20642;-54
2021/04/04 09:00:11;;;;;;;28.25;7.97;;;;;;;;;;3578589;40;20056;-51
2021/04/04 09:02:48;;;;;;;19.80;9.13;;;;;;;;;;3578139;40;20092;-52
2021/04/04 09:05:14;;;;;;;16.20;7.90;;;;;;;;;;3579426;40;20482;-52
2021/04/04 09:07:42;;;;;;;17.98;9.05;;;;;;;;;;3577786;40;20087;-51
2021/04/04 09:10:11;;;;;;;20.88;9.20;;;;;;;;;;3577642;40;20040;-50
2021/04/04 09:12:39;;;;;;;23.90;8.00;;;;;;;;;;3577591;40;20037;-53
2021/04/04 09:15:09;;;;;;;17.85;7.30;;;;;;;;;;3579194;40;20310;-53
2021/04/04 09:17:35;;;;;;;27.88;8.40;;;;;;;;;;3578942;40;20028;-54
2021/04/04 09:20:05;;;;;;;18.08;8.18;;;;;;;;;;3578949;40;20434;-53
2021/04/04 09:22:31;;;;;;;14.43;7.93;;;;;;;;;;3577721;40;20033;-51
2021/04/04 09:25:00;;;;;;;20.48;8.45;;;;;;;;;;3577567;40;20272;-51
2021/04/04 09:27:29;;;;;;;15.93;8.25;;;;;;;;;;3578744;40;20053;-50
2021/04/04 09:29:56;;;;;;;18.92;8.93;;;;;;;;;;3576757;40;20041;-54
2021/04/04 09:32:34;;;;;;;25.10;8.25;;;;;;;;;;3578521;40;20037;-50
2021/04/04 09:35:02;;;;;;;16.17;8.55;;;;;;;;;;3577385;40;20361;-55
2021/04/04 09:37:28;;;;;;;21.98;8.52;;;;;;;;;;3577446;40;20041;-55
2021/04/04 09:39:55;;;;;;;17.40;8.70;;;;;;;;;;3577698;40;20025;-55
2021/04/04 09:42:21;;;;;;;14.13;8.18;;;;;;;;;;3578465;40;20029;-55
2021/04/04 09:44:47;;;;;;;18.52;7.70;;;;;;;;;;3577632;40;20075;-50
2021/04/04 09:47:13;;;;;;;16.63;8.25;;;;;;;;;;3577388;40;20548;-53
2021/04/04 09:49:42;;;;;;;18.48;8.90;;;;;;;;;;3576453;40;20059;-52
2021/04/04 09:52:37;;;;;;;20.15;8.43;;;;;;;;;;3577656;40;20067;-51
2021/04/04 09:55:14;;;;;;;22.23;9.52;;;;;;;;;;3573244;40;20033;-51
2021/04/04 09:57:46;;;;;;;16.27;7.90;;;;;;;;;;3577784;40;20417;-53
2021/04/04 10:00:26;;;;;;;19.27;8.10;;;;;;;;;;3577509;40;20399;-54
2021/04/04 10:02:55;;;;;;;20.55;8.98;;;;;;;;;;3577596;40;20049;-53
2021/04/04 10:05:34;;;;;;;17.40;8.60;;;;;;;;;;3577463;40;20045;-54
2021/04/04 10:08:11;;;;;;;16.83;7.47;;;;;;;;;;3577280;40;20051;-52
2021/04/04 10:10:39;;;;;;;18.95;8.27;;;;;;;;;;3577299;40;20731;-54
2021/04/04 10:13:05;;;;;;;17.55;9.25;;;;;;;;;;3577589;40;20057;-51
2021/04/04 10:15:51;;;;;;;12.80;7.57;;;;;;;;;;3576357;40;20033;-50
2021/04/04 10:18:19;;;;;;;17.40;8.63;;;;;;;;;;3577065;40;20045;-51
2021/04/04 10:20:46;;;;;;;20.73;9.63;;;;;;;;;;3577959;40;20380;-52
2021/04/04 10:23:13;;;;;;;16.63;7.72;;;;;;;;;;3577537;40;20273;-51
2021/04/04 10:25:56;;;;;;;16.33;8.05;;;;;;;;;;3577391;40;20048;-52
2021/04/04 10:28:22;;;;;;;17.00;8.40;;;;;;;;;;3577078;40;20065;-53
2021/04/04 10:30:55;;;;;;;15.13;7.90;;;;;;;;;;3577363;40;20608;-51
2021/04/04 10:33:25;;;;;;;15.52;7.95;;;;;;;;;;3577416;40;20036;-54
2021/04/04 10:35:53;;;;;;;15.35;9.20;;;;;;;;;;3577555;40;20396;-50
2021/04/04 10:38:24;;;;;;;16.35;8.35;;;;;;;;;;3578591;40;20168;-54
2021/04/04 10:40:56;;;;;;;25.42;9.45;;;;;;;;;;3577142;40;20052;-51
2021/04/04 10:43:24;;;;;;;18.45;8.90;;;;;;;;;;3577269;40;20033;-49
2021/04/04 10:45:56;;;;;;;24.98;8.88;;;;;;;;;;3578149;40;20032;-51
2021/04/04 10:48:22;;;;;;;14.88;8.48;;;;;;;;;;3576857;40;20399;-49
2021/04/04 10:50:49;;;;;;;15.57;8.45;;;;;;;;;;3577977;40;20041;-54
2021/04/04 10:53:17;;;;;;;14.48;7.93;;;;;;;;;;3577134;40;20392;-52
2021/04/04 10:55:43;;;;;;;15.27;8.20;;;;;;;;;;3576934;40;20040;-55
2021/04/04 10:58:09;;;;;;;19.95;7.88;;;;;;;;;;3577779;40;20129;-49
2021/04/04 11:00:35;;;;;;;18.88;8.00;;;;;;;;;;3577250;40;20032;-53
2021/04/04 11:03:03;;;;;;;16.83;8.52;;;;;;;;;;3578322;40;20033;-53
2021/04/04 11:05:29;;;;;;;17.83;8.27;;;;;;;;;;3577280;40;20074;-52
2021/04/04 11:07:55;;;;;;;20.52;8.02;;;;;;;;;;3577947;40;20033;-54
2021/04/04 11:10:20;;;;;;;17.90;7.97;;;;;;;;;;3576971;40;20029;-50
2021/04/04 11:12:47;;;;;;;19.88;8.70;;;;;;;;;;3577183;40;20043;-54
2021/04/04 11:15:15;;;;;;;17.60;7.78;;;;;;;;;;3581208;40;20504;-53
2021/04/04 11:17:42;;;;;;;17.98;9.23;;;;;;;;;;3576316;40;20281;-51
2021/04/04 11:20:10;;;;;;;14.73;8.30;;;;;;;;;;3578682;40;20040;-52
2021/04/04 11:22:39;;;;;;;14.73;7.70;;;;;;;;;;3577189;40;20122;-55
2021/04/04 11:25:04;;;;;;;17.38;7.80;;;;;;;;;;3577708;40;20130;-53
2021/04/04 11:27:44;;;;;;;14.63;7.63;;;;;;;;;;3577459;40;20044;-54
2021/04/04 11:30:29;;;;;;;20.65;8.13;;;;;;;;;;3576878;40;20053;-56
2021/04/04 11:33:17;;;;;;;15.02;7.60;;;;;;;;;;3573336;40;20052;-56
2021/04/04 11:36:12;;;;;;;16.27;7.47;;;;;;;;;;3578600;40;20044;-57
2021/04/04 11:38:40;;;;;;;23.02;7.32;;;;;;;;;;3575922;40;20036;-56
2021/04/04 11:41:22;;;;;;;19.77;7.28;;;;;;;;;;3577568;40;20141;-56
2021/04/04 11:43:54;;;;;;;20.55;7.45;;;;;;;;;;3578189;40;20043;-53
2021/04/04 11:46:40;;;;;;;16.25;7.88;;;;;;;;;;3581515;40;20037;-55
2021/04/04 11:49:27;;;;;;;47.75;27.65;;;;;;;;;;3577042;40;20280;-52
2021/04/04 11:51:53;;;;;;;31.35;18.48;;;;;;;;;;3578217;40;20059;-54
2021/04/04 11:54:49;;;;;;;18.20;7.15;;;;;;;;;;3577310;40;20084;-54
2021/04/04 11:57:32;;;;;;;15.57;8.18;;;;;;;;;;3577276;40;20060;-52
2021/04/04 12:00:22;;;;;;;15.95;8.18;;;;;;;;;;3576924;40;20261;-54
2021/04/04 12:02:50;;;;;;;12.73;7.07;;;;;;;;;;3578342;40;20041;-49
2021/04/04 12:05:18;;;;;;;16.40;7.85;;;;;;;;;;3580201;40;20085;-55
2021/04/04 12:08:00;;;;;;;17.08;8.07;;;;;;;;;;3578964;40;20049;-52
2021/04/04 12:10:27;;;;;;;21.70;8.15;;;;;;;;;;3578768;40;20045;-52
2021/04/04 12:12:53;;;;;;;17.10;8.13;;;;;;;;;;3578821;40;20612;-52
2021/04/04 12:15:21;;;;;;;21.70;8.98;;;;;;;;;;3578560;40;20041;-54
2021/04/04 12:17:50;;;;;;;13.15;6.90;;;;;;;;;;3578846;40;20116;-51
2021/04/04 12:20:23;;;;;;;19.75;8.10;;;;;;;;;;3577942;40;20033;-53
2021/04/04 12:22:48;;;;;;;17.98;7.30;;;;;;;;;;3579717;40;20378;-54
2021/04/04 12:25:23;;;;;;;19.25;8.23;;;;;;;;;;3579328;40;20052;-51
2021/04/04 12:27:51;;;;;;;13.77;7.00;;;;;;;;;;3578692;40;20029;-55
2021/04/04 12:30:37;;;;;;;12.73;7.63;;;;;;;;;;3578128;40;20534;-53
2021/04/04 12:33:10;;;;;;;21.27;7.75;;;;;;;;;;3578787;40;20360;-52
2021/04/04 12:35:40;;;;;;;18.20;7.88;;;;;;;;;;3578590;40;20149;-52
2021/04/04 12:38:06;;;;;;;13.75;7.88;;;;;;;;;;3579383;40;20051;-52
2021/04/04 12:40:31;;;;;;;18.27;9.48;;;;;;;;;;3577871;40;20037;-52
2021/04/04 12:43:02;;;;;;;18.52;8.88;;;;;;;;;;3579734;40;20512;-54
2021/04/04 12:45:33;;;;;;;17.75;8.65;;;;;;;;;;3581419;40;20056;-52
2021/04/04 12:48:00;;;;;;;18.50;8.43;;;;;;;;;;3581980;40;20402;-54
2021/04/04 12:50:26;;;;;;;19.73;9.15;;;;;;;;;;3583738;40;20069;-56
2021/04/04 12:52:53;;;;;;;21.75;8.48;;;;;;;;;;3582470;40;20040;-54
2021/04/04 12:55:30;;;;;;;16.42;9.25;;;;;;;;;;3580823;40;20045;-53
2021/04/04 12:58:07;;;;;;;19.40;8.35;;;;;;;;;;3578445;40;20033;-54
2021/04/04 13:00:36;;;;;;;16.88;8.30;;;;;;;;;;3579555;40;20064;-55
2021/04/04 13:03:13;;;;;;;23.95;8.48;;;;;;;;;;3578102;40;20412;-56
2021/04/04 13:05:43;;;;;;;21.70;9.07;;;;;;;;;;3576220;40;20051;-53
2021/04/04 13:08:30;;;;;;;18.73;8.23;;;;;;;;;;3576942;40;20388;-52
2021/04/04 13:11:03;;;;;;;20.83;9.10;;;;;;;;;;3576165;40;20033;-55
2021/04/04 13:13:33;;;;;;;19.70;9.73;;;;;;;;;;3577855;40;20037;-54
2021/04/04 13:16:01;;;;;;;15.43;7.82;;;;;;;;;;3577127;40;20052;-52
2021/04/04 13:18:30;;;;;;;13.07;8.40;;;;;;;;;;3576249;40;20067;-54
2021/04/04 13:21:18;;;;;;;18.38;9.68;;;;;;;;;;3576345;40;20053;-56
2021/04/04 13:23:49;;;;;;;16.42;9.52;;;;;;;;;;3577342;40;20384;-55
2021/04/04 13:26:18;;;;;;;23.10;8.85;;;;;;;;;;3576221;40;20352;-54
2021/04/04 13:28:43;;;;;;;20.02;9.63;;;;;;;;;;3577780;40;20075;-53
2021/04/04 13:31:22;;;;;;;17.83;10.40;;;;;;;;;;3577274;40;20037;-54
2021/04/04 13:34:09;;;;;;;18.65;10.13;;;;;;;;;;3577979;40;20024;-55
2021/04/04 13:36:56;;;;;;;16.85;10.52;;;;;;;;;;3577612;40;20029;-54
2021/04/04 13:39:36;;;;;;;19.45;10.20;;;;;;;;;;3579324;40;20029;-54
2021/04/04 13:42:03;;;;;;;18.52;9.48;;;;;;;;;;3579370;40;20268;-55
2021/04/04 13:44:28;;;;;;;18.33;10.63;;;;;;;;;;3578043;40;20277;-55
2021/04/04 13:46:55;;;;;;;22.95;10.68;;;;;;;;;;3579014;40;20056;-54
2021/04/04 13:49:34;;;;;;;19.40;10.02;;;;;;;;;;3578988;40;20044;-55
2021/04/04 13:52:16;;;;;;;20.60;11.10;;;;;;;;;;3577925;40;20036;-53
2021/04/04 13:54:42;;;;;;;19.80;10.23;;;;;;;;;;3578173;40;20358;-54
2021/04/04 13:57:11;;;;;;;21.83;12.05;;;;;;;;;;3577951;40;20489;-55
2021/04/04 13:59:47;;;;;;;27.67;11.30;;;;;;;;;;3577432;40;20037;-52
2021/04/04 14:02:17;;;;;;;31.55;12.30;;;;;;;;;;3577632;40;20405;-51
2021/04/04 14:04:42;;;;;;;16.13;10.67;;;;;;;;;;3577253;40;20021;-52
2021/04/04 14:07:18;;;;;;;21.75;12.45;;;;;;;;;;3577940;40;20049;-54
2021/04/04 14:09:45;;;;;;;24.67;11.35;;;;;;;;;;3577386;40;20047;-54
2021/04/04 14:12:12;;;;;;;24.40;12.77;;;;;;;;;;3577892;40;20041;-54
2021/04/04 14:14:40;;;;;;;21.83;11.48;;;;;;;;;;3577535;40;20025;-55
2021/04/04 14:17:06;;;;;;;23.48;12.02;;;;;;;;;;3577648;40;20029;-55
2021/04/04 14:19:33;;;;;;;17.40;11.45;;;;;;;;;;3577350;40;20476;-53
2021/04/04 14:22:00;;;;;;;25.58;13.65;;;;;;;;;;3577474;40;20047;-54
2021/04/04 14:24:26;;;;;;;26.92;12.32;;;;;;;;;;3577320;40;20289;-54
2021/04/04 14:26:52;;;;;;;25.88;12.82;;;;;;;;;;3577211;40;20025;-54
2021/04/04 14:29:17;;;;;;;32.38;13.68;;;;;;;;;;3579187;40;20032;-55
2021/04/04 14:31:44;;;;;;;27.40;13.75;;;;;;;;;;3579755;40;20431;-53
2021/04/04 14:34:10;;;;;;;29.00;11.75;;;;;;;;;;3577442;40;20041;-55
2021/04/04 14:36:38;;;;;;;20.05;11.98;;;;;;;;;;3577318;40;20424;-53
2021/04/04 14:39:04;;;;;;;28.10;12.23;;;;;;;;;;3579427;40;20118;-53
2021/04/04 14:41:29;;;;;;;26.15;12.75;;;;;;;;;;3577365;40;20327;-53
2021/04/04 14:46:25;;;;;;;21.35;11.55;;;;;;;;;;3578576;40;20064;-55
2021/04/04 14:48:51;;;;;;;21.45;12.00;;;;;;;;;;3577735;40;20118;-55
2021/04/04 14:51:17;;;;;;;26.67;12.38;;;;;;;;;;3577236;40;20034;-55
2021/04/04 14:53:43;;;;;;;19.67;10.95;;;;;;;;;;3577562;40;20044;-56
2021/04/04 14:56:10;;;;;;;19.73;12.52;;;;;;;;;;3578473;40;20137;-56
2021/04/04 14:58:36;;;;;;;20.70;12.32;;;;;;;;;;3578502;40;20049;-56
2021/04/04 15:01:02;;;;;;;18.88;11.73;;;;;;;;;;3577322;40;20075;-56
2021/04/04 15:03:27;;;;;;;20.50;12.65;;;;;;;;;;3577006;40;20447;-53